sensor_id;sensor_type;location;lat;lon;timestamp;P1;durP1;ratioP1;P2;durP2;ratioP2
11618;SDS011;5865;48.776;9.280;2023-04-15T00:02:00;3.03;;;2.27;;
11618;SDS011;5865;48.776;9.280;2023-04-15T00:04:39;3.27;;;2.50;;
11618;SDS011;5865;48.776;9.280;2023-04-15T00:07:07;6.20;;;2.57;;
11618;SDS011;5865;48.776;9.280;2023-04-15T00:09:35;3.63;;;2.27;;
11618;SDS011;5865;48.776;9.280;2023-04-15T00:12:03;5.80;;;2.33;;
11618;SDS011;5865;48.776;9.280;2023-04-15T00:14:30;5.00;;;2.10;;
11618;SDS011;5865;48.776;9.280;2023-04-15T00:16:59;2.47;;;2.10;;
11618;SDS011;5865;48.776;9.280;2023-04-15T00:19:45;2.57;;;2.03;;
11618;SDS011;5865;48.776;9.280;2023-04-15T00:22:14;3.73;;;2.53;;
11618;SDS011;5865;48.776;9.280;2023-04-15T00:24:43;2.87;;;2.30;;
11618;SDS011;5865;48.776;9.280;2023-04-15T00:27:10;5.47;;;2.43;;
11618;SDS011;5865;48.776;9.280;2023-04-15T00:29:51;3.40;;;2.20;;
11618;SDS011;5865;48.776;9.280;2023-04-15T00:32:20;3.57;;;2.37;;
11618;SDS011;5865;48.776;9.280;2023-04-15T00:34:49;4.10;;;2.33;;
11618;SDS011;5865;48.776;9.280;2023-04-15T00:37:17;5.17;;;2.30;;
11618;SDS011;5865;48.776;9.280;2023-04-15T00:39:47;3.40;;;2.30;;
11618;SDS011;5865;48.776;9.280;2023-04-15T00:42:16;3.93;;;2.40;;
11618;SDS011;5865;48.776;9.280;2023-04-15T00:44:45;5.53;;;2.50;;
11618;SDS011;5865;48.776;9.280;2023-04-15T00:47:12;3.80;;;2.20;;
11618;SDS011;5865;48.776;9.280;2023-04-15T00:49:42;3.43;;;2.33;;
11618;SDS011;5865;48.776;9.280;2023-04-15T00:52:11;7.93;;;3.00;;
11618;SDS011;5865;48.776;9.280;2023-04-15T00:54:40;7.70;;;2.80;;
11618;SDS011;5865;48.776;9.280;2023-04-15T00:57:07;3.77;;;2.40;;
11618;SDS011;5865;48.776;9.280;2023-04-15T00:59:34;6.50;;;2.80;;
11618;SDS011;5865;48.776;9.280;2023-04-15T01:02:02;5.30;;;2.67;;
11618;SDS011;5865;48.776;9.280;2023-04-15T01:04:29;6.47;;;2.70;;
11618;SDS011;5865;48.776;9.280;2023-04-15T01:06:57;4.47;;;2.60;;
11618;SDS011;5865;48.776;9.280;2023-04-15T01:09:28;5.73;;;2.43;;
11618;SDS011;5865;48.776;9.280;2023-04-15T01:11:57;3.37;;;2.50;;
11618;SDS011;5865;48.776;9.280;2023-04-15T01:14:24;4.90;;;2.70;;
11618;SDS011;5865;48.776;9.280;2023-04-15T01:16:53;6.30;;;2.80;;
11618;SDS011;5865;48.776;9.280;2023-04-15T01:19:21;4.27;;;2.60;;
11618;SDS011;5865;48.776;9.280;2023-04-15T01:21:48;3.43;;;2.50;;
11618;SDS011;5865;48.776;9.280;2023-04-15T01:24:18;3.10;;;2.57;;
11618;SDS011;5865;48.776;9.280;2023-04-15T01:26:46;6.20;;;3.00;;
11618;SDS011;5865;48.776;9.280;2023-04-15T01:29:14;5.27;;;2.80;;
11618;SDS011;5865;48.776;9.280;2023-04-15T01:31:47;6.00;;;3.20;;
11618;SDS011;5865;48.776;9.280;2023-04-15T01:34:16;4.83;;;3.10;;
11618;SDS011;5865;48.776;9.280;2023-04-15T01:36:45;4.93;;;3.00;;
11618;SDS011;5865;48.776;9.280;2023-04-15T01:39:13;4.90;;;2.90;;
11618;SDS011;5865;48.776;9.280;2023-04-15T01:41:40;6.17;;;3.63;;
11618;SDS011;5865;48.776;9.280;2023-04-15T01:44:09;4.43;;;2.93;;
11618;SDS011;5865;48.776;9.280;2023-04-15T01:46:38;5.57;;;3.33;;
11618;SDS011;5865;48.776;9.280;2023-04-15T01:49:05;4.53;;;3.00;;
11618;SDS011;5865;48.776;9.280;2023-04-15T01:51:34;4.27;;;2.83;;
11618;SDS011;5865;48.776;9.280;2023-04-15T01:54:04;4.93;;;3.30;;
11618;SDS011;5865;48.776;9.280;2023-04-15T01:56:32;5.60;;;3.13;;
11618;SDS011;5865;48.776;9.280;2023-04-15T01:59:01;5.40;;;3.47;;
11618;SDS011;5865;48.776;9.280;2023-04-15T02:01:30;5.23;;;3.80;;
11618;SDS011;5865;48.776;9.280;2023-04-15T02:03:58;7.27;;;3.67;;
11618;SDS011;5865;48.776;9.280;2023-04-15T02:06:26;7.13;;;3.67;;
11618;SDS011;5865;48.776;9.280;2023-04-15T02:08:54;5.63;;;3.73;;
11618;SDS011;5865;48.776;9.280;2023-04-15T02:11:23;4.73;;;3.23;;
11618;SDS011;5865;48.776;9.280;2023-04-15T02:13:51;6.50;;;3.60;;
11618;SDS011;5865;48.776;9.280;2023-04-15T02:16:18;8.47;;;3.47;;
11618;SDS011;5865;48.776;9.280;2023-04-15T02:18:48;5.30;;;3.80;;
11618;SDS011;5865;48.776;9.280;2023-04-15T02:21:17;6.10;;;3.50;;
11618;SDS011;5865;48.776;9.280;2023-04-15T02:23:44;6.27;;;3.70;;
11618;SDS011;5865;48.776;9.280;2023-04-15T02:26:12;8.60;;;3.77;;
11618;SDS011;5865;48.776;9.280;2023-04-15T02:28:41;5.00;;;3.70;;
11618;SDS011;5865;48.776;9.280;2023-04-15T02:31:08;6.93;;;3.50;;
11618;SDS011;5865;48.776;9.280;2023-04-15T02:33:35;5.07;;;3.77;;
11618;SDS011;5865;48.776;9.280;2023-04-15T02:36:05;5.60;;;3.70;;
11618;SDS011;5865;48.776;9.280;2023-04-15T02:38:34;5.33;;;3.20;;
11618;SDS011;5865;48.776;9.280;2023-04-15T02:41:02;6.87;;;3.80;;
11618;SDS011;5865;48.776;9.280;2023-04-15T02:43:30;5.83;;;3.27;;
11618;SDS011;5865;48.776;9.280;2023-04-15T02:45:58;6.03;;;3.87;;
11618;SDS011;5865;48.776;9.280;2023-04-15T02:48:26;5.43;;;3.60;;
11618;SDS011;5865;48.776;9.280;2023-04-15T02:53:41;6.20;;;3.67;;
11618;SDS011;5865;48.776;9.280;2023-04-15T02:56:08;5.60;;;3.87;;
11618;SDS011;5865;48.776;9.280;2023-04-15T02:58:48;7.13;;;4.03;;
11618;SDS011;5865;48.776;9.280;2023-04-15T03:01:16;6.30;;;3.90;;
11618;SDS011;5865;48.776;9.280;2023-04-15T03:03:46;6.00;;;3.97;;
11618;SDS011;5865;48.776;9.280;2023-04-15T03:06:17;6.07;;;4.27;;
11618;SDS011;5865;48.776;9.280;2023-04-15T03:08:58;7.37;;;4.37;;
11618;SDS011;5865;48.776;9.280;2023-04-15T03:11:37;8.57;;;3.97;;
11618;SDS011;5865;48.776;9.280;2023-04-15T03:14:08;5.60;;;3.77;;
11618;SDS011;5865;48.776;9.280;2023-04-15T03:16:41;6.80;;;4.00;;
11618;SDS011;5865;48.776;9.280;2023-04-15T03:19:15;8.13;;;3.70;;
11618;SDS011;5865;48.776;9.280;2023-04-15T03:21:47;5.57;;;3.70;;
11618;SDS011;5865;48.776;9.280;2023-04-15T03:24:17;5.37;;;3.90;;
11618;SDS011;5865;48.776;9.280;2023-04-15T03:26:45;4.80;;;3.77;;
11618;SDS011;5865;48.776;9.280;2023-04-15T03:29:21;7.37;;;4.00;;
11618;SDS011;5865;48.776;9.280;2023-04-15T03:31:49;7.80;;;4.03;;
11618;SDS011;5865;48.776;9.280;2023-04-15T03:34:19;5.77;;;3.80;;
11618;SDS011;5865;48.776;9.280;2023-04-15T03:36:52;6.30;;;3.90;;
11618;SDS011;5865;48.776;9.280;2023-04-15T03:39:20;5.30;;;4.10;;
11618;SDS011;5865;48.776;9.280;2023-04-15T03:42:01;6.17;;;4.13;;
11618;SDS011;5865;48.776;9.280;2023-04-15T03:44:29;6.13;;;4.20;;
11618;SDS011;5865;48.776;9.280;2023-04-15T03:46:57;6.33;;;3.73;;
11618;SDS011;5865;48.776;9.280;2023-04-15T03:49:28;6.33;;;4.27;;
11618;SDS011;5865;48.776;9.280;2023-04-15T03:52:02;4.97;;;3.97;;
11618;SDS011;5865;48.776;9.280;2023-04-15T03:54:30;6.87;;;4.23;;
11618;SDS011;5865;48.776;9.280;2023-04-15T03:56:57;8.50;;;4.33;;
11618;SDS011;5865;48.776;9.280;2023-04-15T03:59:25;9.37;;;4.27;;
11618;SDS011;5865;48.776;9.280;2023-04-15T04:01:58;8.60;;;4.30;;
11618;SDS011;5865;48.776;9.280;2023-04-15T04:04:39;10.43;;;4.87;;
11618;SDS011;5865;48.776;9.280;2023-04-15T04:07:12;9.57;;;4.47;;
11618;SDS011;5865;48.776;9.280;2023-04-15T04:09:41;7.67;;;4.43;;
11618;SDS011;5865;48.776;9.280;2023-04-15T04:12:08;8.93;;;4.43;;
11618;SDS011;5865;48.776;9.280;2023-04-15T04:14:37;8.17;;;4.70;;
11618;SDS011;5865;48.776;9.280;2023-04-15T04:17:05;9.00;;;4.73;;
11618;SDS011;5865;48.776;9.280;2023-04-15T04:19:32;8.77;;;4.20;;
11618;SDS011;5865;48.776;9.280;2023-04-15T04:22:00;8.03;;;4.57;;
11618;SDS011;5865;48.776;9.280;2023-04-15T04:24:32;9.43;;;5.03;;
11618;SDS011;5865;48.776;9.280;2023-04-15T04:27:00;8.20;;;5.47;;
11618;SDS011;5865;48.776;9.280;2023-04-15T04:29:29;9.47;;;6.03;;
11618;SDS011;5865;48.776;9.280;2023-04-15T04:31:57;10.03;;;6.20;;
11618;SDS011;5865;48.776;9.280;2023-04-15T04:34:27;13.37;;;5.90;;
11618;SDS011;5865;48.776;9.280;2023-04-15T04:36:54;10.87;;;6.10;;
11618;SDS011;5865;48.776;9.280;2023-04-15T04:39:22;10.70;;;6.20;;
11618;SDS011;5865;48.776;9.280;2023-04-15T04:41:52;11.20;;;6.63;;
11618;SDS011;5865;48.776;9.280;2023-04-15T04:44:20;9.40;;;6.00;;
11618;SDS011;5865;48.776;9.280;2023-04-15T04:46:47;9.27;;;6.27;;
11618;SDS011;5865;48.776;9.280;2023-04-15T04:49:17;12.50;;;5.80;;
11618;SDS011;5865;48.776;9.280;2023-04-15T04:51:45;9.97;;;5.40;;
11618;SDS011;5865;48.776;9.280;2023-04-15T04:54:13;8.63;;;5.57;;
11618;SDS011;5865;48.776;9.280;2023-04-15T04:56:43;8.60;;;5.53;;
11618;SDS011;5865;48.776;9.280;2023-04-15T04:59:12;9.37;;;5.73;;
11618;SDS011;5865;48.776;9.280;2023-04-15T05:05:27;8.30;;;5.20;;
11618;SDS011;5865;48.776;9.280;2023-04-15T05:07:55;9.00;;;5.40;;
11618;SDS011;5865;48.776;9.280;2023-04-15T05:10:22;9.63;;;5.10;;
11618;SDS011;5865;48.776;9.280;2023-04-15T05:12:49;9.03;;;5.00;;
11618;SDS011;5865;48.776;9.280;2023-04-15T05:15:18;10.77;;;5.37;;
11618;SDS011;5865;48.776;9.280;2023-04-15T05:17:45;9.07;;;5.40;;
11618;SDS011;5865;48.776;9.280;2023-04-15T05:20:13;9.53;;;5.10;;
11618;SDS011;5865;48.776;9.280;2023-04-15T05:22:43;7.07;;;4.90;;
11618;SDS011;5865;48.776;9.280;2023-04-15T05:25:11;8.33;;;4.73;;
11618;SDS011;5865;48.776;9.280;2023-04-15T05:27:39;9.33;;;5.27;;
11618;SDS011;5865;48.776;9.280;2023-04-15T05:30:06;8.17;;;5.10;;
11618;SDS011;5865;48.776;9.280;2023-04-15T05:32:36;7.53;;;5.63;;
11618;SDS011;5865;48.776;9.280;2023-04-15T05:35:07;13.33;;;7.20;;
11618;SDS011;5865;48.776;9.280;2023-04-15T05:37:34;11.70;;;6.60;;
11618;SDS011;5865;48.776;9.280;2023-04-15T05:40:02;15.33;;;8.13;;
11618;SDS011;5865;48.776;9.280;2023-04-15T05:42:30;19.20;;;9.57;;
11618;SDS011;5865;48.776;9.280;2023-04-15T05:44:58;17.43;;;10.13;;
11618;SDS011;5865;48.776;9.280;2023-04-15T05:47:26;16.60;;;9.70;;
11618;SDS011;5865;48.776;9.280;2023-04-15T05:49:56;14.17;;;8.90;;
11618;SDS011;5865;48.776;9.280;2023-04-15T05:52:25;11.10;;;6.90;;
11618;SDS011;5865;48.776;9.280;2023-04-15T05:54:52;11.10;;;6.07;;
11618;SDS011;5865;48.776;9.280;2023-04-15T05:57:22;11.27;;;7.07;;
11618;SDS011;5865;48.776;9.280;2023-04-15T05:59:51;9.63;;;6.80;;
11618;SDS011;5865;48.776;9.280;2023-04-15T06:02:22;11.43;;;6.67;;
11618;SDS011;5865;48.776;9.280;2023-04-15T06:04:50;11.30;;;7.13;;
11618;SDS011;5865;48.776;9.280;2023-04-15T06:07:20;10.73;;;7.47;;
11618;SDS011;5865;48.776;9.280;2023-04-15T06:09:47;9.70;;;6.40;;
11618;SDS011;5865;48.776;9.280;2023-04-15T06:12:16;9.70;;;6.63;;
11618;SDS011;5865;48.776;9.280;2023-04-15T06:14:44;10.03;;;6.87;;
11618;SDS011;5865;48.776;9.280;2023-04-15T06:17:12;9.67;;;6.37;;
11618;SDS011;5865;48.776;9.280;2023-04-15T06:19:42;8.60;;;5.60;;
11618;SDS011;5865;48.776;9.280;2023-04-15T06:22:09;8.47;;;5.23;;
11618;SDS011;5865;48.776;9.280;2023-04-15T06:24:38;7.97;;;4.93;;
11618;SDS011;5865;48.776;9.280;2023-04-15T06:27:06;8.97;;;4.97;;
11618;SDS011;5865;48.776;9.280;2023-04-15T06:29:36;7.50;;;4.53;;
11618;SDS011;5865;48.776;9.280;2023-04-15T06:32:03;7.43;;;4.30;;
11618;SDS011;5865;48.776;9.280;2023-04-15T06:34:30;8.60;;;4.43;;
11618;SDS011;5865;48.776;9.280;2023-04-15T06:36:57;7.23;;;3.90;;
11618;SDS011;5865;48.776;9.280;2023-04-15T06:39:26;7.43;;;3.80;;
11618;SDS011;5865;48.776;9.280;2023-04-15T06:41:57;6.17;;;3.43;;
11618;SDS011;5865;48.776;9.280;2023-04-15T06:44:24;6.03;;;3.23;;
11618;SDS011;5865;48.776;9.280;2023-04-15T06:46:52;7.73;;;3.90;;
11618;SDS011;5865;48.776;9.280;2023-04-15T06:49:20;4.27;;;3.50;;
11618;SDS011;5865;48.776;9.280;2023-04-15T06:51:49;4.80;;;3.37;;
11618;SDS011;5865;48.776;9.280;2023-04-15T06:54:17;4.63;;;2.83;;
11618;SDS011;5865;48.776;9.280;2023-04-15T06:56:44;6.20;;;3.30;;
11618;SDS011;5865;48.776;9.280;2023-04-15T06:59:14;4.83;;;2.67;;
11618;SDS011;5865;48.776;9.280;2023-04-15T10:25:28;1.92;;;1.70;;
11618;SDS011;5865;48.776;9.280;2023-04-15T10:27:57;5.47;;;1.83;;
11618;SDS011;5865;48.776;9.280;2023-04-15T10:30:33;3.50;;;2.20;;
11618;SDS011;5865;48.776;9.280;2023-04-15T10:33:16;2.83;;;2.00;;
11618;SDS011;5865;48.776;9.280;2023-04-15T10:35:47;3.15;;;1.90;;
11618;SDS011;5865;48.776;9.280;2023-04-15T10:38:32;3.00;;;2.00;;
11618;SDS011;5865;48.776;9.280;2023-04-15T10:41:15;4.07;;;2.45;;
11618;SDS011;5865;48.776;9.280;2023-04-15T10:43:47;3.65;;;2.05;;
11618;SDS011;5865;48.776;9.280;2023-04-15T10:46:20;3.08;;;2.30;;
11618;SDS011;5865;48.776;9.280;2023-04-15T10:48:53;3.63;;;2.17;;
11618;SDS011;5865;48.776;9.280;2023-04-15T10:51:35;4.30;;;1.90;;
11618;SDS011;5865;48.776;9.280;2023-04-15T10:54:07;4.10;;;2.65;;
11618;SDS011;5865;48.776;9.280;2023-04-15T10:59:35;2.72;;;2.30;;
11618;SDS011;5865;48.776;9.280;2023-04-15T11:02:16;3.70;;;2.53;;
11618;SDS011;5865;48.776;9.280;2023-04-15T11:04:51;2.90;;;1.88;;
11618;SDS011;5865;48.776;9.280;2023-04-15T11:07:32;3.03;;;2.10;;
11618;SDS011;5865;48.776;9.280;2023-04-15T11:10:00;4.88;;;2.05;;
11618;SDS011;5865;48.776;9.280;2023-04-15T11:12:34;2.90;;;1.88;;
11618;SDS011;5865;48.776;9.280;2023-04-15T11:17:54;4.25;;;2.17;;
11618;SDS011;5865;48.776;9.280;2023-04-15T11:20:21;4.15;;;2.47;;
11618;SDS011;5865;48.776;9.280;2023-04-15T11:22:52;8.48;;;2.92;;
11618;SDS011;5865;48.776;9.280;2023-04-15T11:25:23;4.25;;;2.55;;
11618;SDS011;5865;48.776;9.280;2023-04-15T11:27:52;3.40;;;2.47;;
11618;SDS011;5865;48.776;9.280;2023-04-15T11:30:21;3.35;;;2.20;;
11618;SDS011;5865;48.776;9.280;2023-04-15T11:32:51;5.85;;;3.40;;
11618;SDS011;5865;48.776;9.280;2023-04-15T11:35:18;5.95;;;3.10;;
11618;SDS011;5865;48.776;9.280;2023-04-15T11:37:48;3.95;;;2.50;;
11618;SDS011;5865;48.776;9.280;2023-04-15T11:40:15;5.50;;;3.08;;
11618;SDS011;5865;48.776;9.280;2023-04-15T11:43:06;4.18;;;2.92;;
11618;SDS011;5865;48.776;9.280;2023-04-15T11:45:46;3.22;;;2.80;;
11618;SDS011;5865;48.776;9.280;2023-04-15T11:48:15;5.75;;;3.22;;
11618;SDS011;5865;48.776;9.280;2023-04-15T11:50:57;6.30;;;3.40;;
11618;SDS011;5865;48.776;9.280;2023-04-15T11:53:34;6.57;;;3.20;;
11618;SDS011;5865;48.776;9.280;2023-04-15T11:56:05;6.27;;;3.40;;
11618;SDS011;5865;48.776;9.280;2023-04-15T11:58:35;6.13;;;3.33;;
11618;SDS011;5865;48.776;9.280;2023-04-15T12:01:03;5.90;;;3.37;;
11618;SDS011;5865;48.776;9.280;2023-04-15T12:03:35;7.00;;;3.77;;
11618;SDS011;5865;48.776;9.280;2023-04-15T12:06:13;5.23;;;2.70;;
11618;SDS011;5865;48.776;9.280;2023-04-15T12:11:42;6.53;;;3.50;;
11618;SDS011;5865;48.776;9.280;2023-04-15T12:17:23;4.93;;;2.27;;
11618;SDS011;5865;48.776;9.280;2023-04-15T12:19:55;3.63;;;2.27;;
11618;SDS011;5865;48.776;9.280;2023-04-15T12:22:27;4.70;;;2.23;;
11618;SDS011;5865;48.776;9.280;2023-04-15T12:24:55;4.73;;;2.40;;
11618;SDS011;5865;48.776;9.280;2023-04-15T12:27:35;3.23;;;2.00;;
11618;SDS011;5865;48.776;9.280;2023-04-15T12:30:03;6.00;;;2.53;;
11618;SDS011;5865;48.776;9.280;2023-04-15T12:32:35;4.73;;;2.60;;
11618;SDS011;5865;48.776;9.280;2023-04-15T12:35:02;3.60;;;2.80;;
11618;SDS011;5865;48.776;9.280;2023-04-15T12:37:29;5.47;;;2.97;;
11618;SDS011;5865;48.776;9.280;2023-04-15T12:39:56;7.03;;;3.30;;
11618;SDS011;5865;48.776;9.280;2023-04-15T12:42:23;5.17;;;3.60;;
11618;SDS011;5865;48.776;9.280;2023-04-15T12:44:51;5.10;;;3.63;;
11618;SDS011;5865;48.776;9.280;2023-04-15T12:47:18;5.83;;;3.73;;
11618;SDS011;5865;48.776;9.280;2023-04-15T12:49:47;6.93;;;3.57;;
11618;SDS011;5865;48.776;9.280;2023-04-15T12:52:16;4.43;;;3.57;;
11618;SDS011;5865;48.776;9.280;2023-04-15T12:54:43;5.20;;;3.33;;
11618;SDS011;5865;48.776;9.280;2023-04-15T12:57:10;5.87;;;4.03;;
11618;SDS011;5865;48.776;9.280;2023-04-15T12:59:37;4.83;;;3.30;;
11618;SDS011;5865;48.776;9.280;2023-04-15T13:02:05;3.77;;;2.90;;
11618;SDS011;5865;48.776;9.280;2023-04-15T13:04:32;3.93;;;2.83;;
11618;SDS011;5865;48.776;9.280;2023-04-15T13:07:01;2.87;;;2.40;;
11618;SDS011;5865;48.776;9.280;2023-04-15T13:09:42;3.50;;;2.33;;
11618;SDS011;5865;48.776;9.280;2023-04-15T13:12:09;4.03;;;2.60;;
11618;SDS011;5865;48.776;9.280;2023-04-15T13:14:37;3.63;;;2.37;;
11618;SDS011;5865;48.776;9.280;2023-04-15T13:17:05;3.60;;;2.03;;
11618;SDS011;5865;48.776;9.280;2023-04-15T13:19:35;2.83;;;1.80;;
11618;SDS011;5865;48.776;9.280;2023-04-15T13:22:04;3.03;;;2.03;;
11618;SDS011;5865;48.776;9.280;2023-04-15T13:24:45;4.30;;;2.00;;
11618;SDS011;5865;48.776;9.280;2023-04-15T13:27:12;3.20;;;2.03;;
11618;SDS011;5865;48.776;9.280;2023-04-15T13:29:39;4.60;;;1.70;;
11618;SDS011;5865;48.776;9.280;2023-04-15T13:32:07;2.90;;;1.80;;
11618;SDS011;5865;48.776;9.280;2023-04-15T13:34:34;2.30;;;1.60;;
11618;SDS011;5865;48.776;9.280;2023-04-15T13:37:06;3.30;;;1.77;;
11618;SDS011;5865;48.776;9.280;2023-04-15T13:39:35;3.00;;;1.60;;
11618;SDS011;5865;48.776;9.280;2023-04-15T13:42:02;2.73;;;1.70;;
11618;SDS011;5865;48.776;9.280;2023-04-15T13:44:43;2.60;;;1.60;;
11618;SDS011;5865;48.776;9.280;2023-04-15T13:47:11;5.67;;;1.83;;
11618;SDS011;5865;48.776;9.280;2023-04-15T13:49:40;3.77;;;1.80;;
11618;SDS011;5865;48.776;9.280;2023-04-15T13:55:10;2.17;;;1.50;;
11618;SDS011;5865;48.776;9.280;2023-04-15T13:57:51;3.00;;;1.50;;
11618;SDS011;5865;48.776;9.280;2023-04-15T14:00:32;2.03;;;1.63;;
11618;SDS011;5865;48.776;9.280;2023-04-15T14:03:01;3.73;;;2.13;;
11618;SDS011;5865;48.776;9.280;2023-04-15T14:05:36;2.83;;;2.00;;
11618;SDS011;5865;48.776;9.280;2023-04-15T14:08:17;1.17;;;0.90;;
11618;SDS011;5865;48.776;9.280;2023-04-15T14:10:46;1.17;;;0.93;;
11618;SDS011;5865;48.776;9.280;2023-04-15T14:13:14;5.80;;;3.27;;
11618;SDS011;5865;48.776;9.280;2023-04-15T14:15:53;2.83;;;2.00;;
11618;SDS011;5865;48.776;9.280;2023-04-15T14:18:21;2.60;;;1.20;;
11618;SDS011;5865;48.776;9.280;2023-04-15T14:23:44;12.67;;;8.03;;
11618;SDS011;5865;48.776;9.280;2023-04-15T14:29:25;3.00;;;2.03;;
11618;SDS011;5865;48.776;9.280;2023-04-15T14:31:52;3.87;;;1.23;;
11618;SDS011;5865;48.776;9.280;2023-04-15T14:34:21;2.80;;;1.17;;
11618;SDS011;5865;48.776;9.280;2023-04-15T14:36:49;1.90;;;1.17;;
11618;SDS011;5865;48.776;9.280;2023-04-15T14:39:17;0.90;;;0.80;;
11618;SDS011;5865;48.776;9.280;2023-04-15T14:44:29;2.37;;;1.50;;
11618;SDS011;5865;48.776;9.280;2023-04-15T14:46:56;1.97;;;1.10;;
11618;SDS011;5865;48.776;9.280;2023-04-15T14:49:23;2.50;;;1.83;;
11618;SDS011;5865;48.776;9.280;2023-04-15T14:52:04;2.23;;;1.77;;
11618;SDS011;5865;48.776;9.280;2023-04-15T14:54:33;4.50;;;3.20;;
11618;SDS011;5865;48.776;9.280;2023-04-15T14:57:22;2.17;;;1.70;;
11618;SDS011;5865;48.776;9.280;2023-04-15T14:59:51;9.43;;;6.67;;
11618;SDS011;5865;48.776;9.280;2023-04-15T15:02:20;1.90;;;1.63;;
11618;SDS011;5865;48.776;9.280;2023-04-15T15:04:47;5.10;;;3.00;;
11618;SDS011;5865;48.776;9.280;2023-04-15T15:07:15;5.20;;;3.20;;
11618;SDS011;5865;48.776;9.280;2023-04-15T15:09:42;6.53;;;3.40;;
11618;SDS011;5865;48.776;9.280;2023-04-15T15:12:10;2.47;;;2.27;;
11618;SDS011;5865;48.776;9.280;2023-04-15T15:14:39;1.50;;;1.40;;
11618;SDS011;5865;48.776;9.280;2023-04-15T15:17:07;3.40;;;2.10;;
11618;SDS011;5865;48.776;9.280;2023-04-15T15:19:35;2.20;;;1.63;;
11618;SDS011;5865;48.776;9.280;2023-04-15T15:22:03;2.43;;;1.57;;
11618;SDS011;5865;48.776;9.280;2023-04-15T15:24:44;1.63;;;1.30;;
11618;SDS011;5865;48.776;9.280;2023-04-15T15:27:11;2.93;;;1.50;;
11618;SDS011;5865;48.776;9.280;2023-04-15T15:29:40;3.00;;;1.60;;
11618;SDS011;5865;48.776;9.280;2023-04-15T15:32:08;2.03;;;1.50;;
11618;SDS011;5865;48.776;9.280;2023-04-15T15:34:49;5.30;;;1.50;;
11618;SDS011;5865;48.776;9.280;2023-04-15T15:37:18;2.53;;;1.33;;
11618;SDS011;5865;48.776;9.280;2023-04-15T15:39:45;2.20;;;1.37;;
11618;SDS011;5865;48.776;9.280;2023-04-15T15:42:13;3.67;;;1.77;;
11618;SDS011;5865;48.776;9.280;2023-04-15T15:44:41;3.30;;;1.70;;
11618;SDS011;5865;48.776;9.280;2023-04-15T15:47:22;2.17;;;1.50;;
11618;SDS011;5865;48.776;9.280;2023-04-15T15:49:50;1.40;;;1.30;;
11618;SDS011;5865;48.776;9.280;2023-04-15T15:52:18;4.03;;;1.70;;
11618;SDS011;5865;48.776;9.280;2023-04-15T15:54:45;3.97;;;1.70;;
11618;SDS011;5865;48.776;9.280;2023-04-15T15:57:12;1.90;;;1.50;;
11618;SDS011;5865;48.776;9.280;2023-04-15T15:59:39;2.00;;;1.60;;
11618;SDS011;5865;48.776;9.280;2023-04-15T16:02:09;1.63;;;1.53;;
11618;SDS011;5865;48.776;9.280;2023-04-15T16:04:37;2.07;;;1.70;;
11618;SDS011;5865;48.776;9.280;2023-04-15T16:07:04;1.70;;;1.60;;
11618;SDS011;5865;48.776;9.280;2023-04-15T16:09:31;2.97;;;1.50;;
11618;SDS011;5865;48.776;9.280;2023-04-15T16:12:10;2.47;;;1.60;;
11618;SDS011;5865;48.776;9.280;2023-04-15T16:14:37;4.63;;;1.80;;
11618;SDS011;5865;48.776;9.280;2023-04-15T16:17:04;2.27;;;1.70;;
11618;SDS011;5865;48.776;9.280;2023-04-15T16:19:33;1.60;;;1.50;;
11618;SDS011;5865;48.776;9.280;2023-04-15T16:22:00;2.23;;;1.70;;
11618;SDS011;5865;48.776;9.280;2023-04-15T16:24:27;3.10;;;1.90;;
11618;SDS011;5865;48.776;9.280;2023-04-15T16:26:55;2.10;;;1.90;;
11618;SDS011;5865;48.776;9.280;2023-04-15T16:29:23;2.33;;;1.70;;
11618;SDS011;5865;48.776;9.280;2023-04-15T16:31:50;2.40;;;1.80;;
11618;SDS011;5865;48.776;9.280;2023-04-15T16:34:18;1.93;;;1.70;;
11618;SDS011;5865;48.776;9.280;2023-04-15T16:36:46;2.27;;;1.80;;
11618;SDS011;5865;48.776;9.280;2023-04-15T16:39:13;1.70;;;1.60;;
11618;SDS011;5865;48.776;9.280;2023-04-15T16:41:40;1.90;;;1.70;;
11618;SDS011;5865;48.776;9.280;2023-04-15T16:44:07;2.77;;;2.00;;
11618;SDS011;5865;48.776;9.280;2023-04-15T16:46:35;2.03;;;1.80;;
11618;SDS011;5865;48.776;9.280;2023-04-15T16:49:03;2.17;;;1.97;;
11618;SDS011;5865;48.776;9.280;2023-04-15T16:51:30;2.30;;;2.00;;
11618;SDS011;5865;48.776;9.280;2023-04-15T16:53:59;2.07;;;1.87;;
11618;SDS011;5865;48.776;9.280;2023-04-15T16:56:26;2.40;;;2.20;;
11618;SDS011;5865;48.776;9.280;2023-04-15T16:58:53;2.40;;;2.10;;
11618;SDS011;5865;48.776;9.280;2023-04-15T17:01:20;2.30;;;2.10;;
11618;SDS011;5865;48.776;9.280;2023-04-15T17:03:47;2.40;;;2.20;;
11618;SDS011;5865;48.776;9.280;2023-04-15T17:06:15;2.83;;;2.50;;
11618;SDS011;5865;48.776;9.280;2023-04-15T17:08:43;3.93;;;2.40;;
11618;SDS011;5865;48.776;9.280;2023-04-15T17:11:11;3.37;;;2.30;;
11618;SDS011;5865;48.776;9.280;2023-04-15T17:13:39;2.60;;;2.40;;
11618;SDS011;5865;48.776;9.280;2023-04-15T17:16:06;3.00;;;2.70;;
11618;SDS011;5865;48.776;9.280;2023-04-15T17:18:34;3.50;;;2.97;;
11618;SDS011;5865;48.776;9.280;2023-04-15T17:21:01;4.63;;;3.00;;
11618;SDS011;5865;48.776;9.280;2023-04-15T17:23:28;3.23;;;2.93;;
11618;SDS011;5865;48.776;9.280;2023-04-15T17:25:55;4.10;;;3.23;;
11618;SDS011;5865;48.776;9.280;2023-04-15T17:28:24;3.67;;;2.80;;
11618;SDS011;5865;48.776;9.280;2023-04-15T17:30:51;4.13;;;2.60;;
11618;SDS011;5865;48.776;9.280;2023-04-15T17:33:18;4.13;;;2.97;;
11618;SDS011;5865;48.776;9.280;2023-04-15T17:35:45;2.93;;;2.63;;
11618;SDS011;5865;48.776;9.280;2023-04-15T17:38:13;4.03;;;2.93;;
11618;SDS011;5865;48.776;9.280;2023-04-15T17:40:40;3.40;;;3.00;;
11618;SDS011;5865;48.776;9.280;2023-04-15T17:43:07;3.13;;;2.83;;
11618;SDS011;5865;48.776;9.280;2023-04-15T17:45:35;3.87;;;2.90;;
11618;SDS011;5865;48.776;9.280;2023-04-15T17:48:04;3.97;;;3.00;;
11618;SDS011;5865;48.776;9.280;2023-04-15T17:50:32;3.43;;;2.70;;
11618;SDS011;5865;48.776;9.280;2023-04-15T17:52:59;4.37;;;3.03;;
11618;SDS011;5865;48.776;9.280;2023-04-15T17:55:26;3.20;;;2.90;;
11618;SDS011;5865;48.776;9.280;2023-04-15T17:57:53;3.20;;;2.90;;
11618;SDS011;5865;48.776;9.280;2023-04-15T18:00:20;3.60;;;3.00;;
11618;SDS011;5865;48.776;9.280;2023-04-15T18:02:48;2.90;;;2.40;;
11618;SDS011;5865;48.776;9.280;2023-04-15T18:05:18;2.77;;;2.37;;
11618;SDS011;5865;48.776;9.280;2023-04-15T18:07:45;3.70;;;2.50;;
11618;SDS011;5865;48.776;9.280;2023-04-15T18:10:12;2.40;;;2.20;;
11618;SDS011;5865;48.776;9.280;2023-04-15T18:12:39;2.20;;;2.00;;
11618;SDS011;5865;48.776;9.280;2023-04-15T18:15:06;2.53;;;1.87;;
11618;SDS011;5865;48.776;9.280;2023-04-15T18:17:34;2.17;;;1.70;;
11618;SDS011;5865;48.776;9.280;2023-04-15T18:20:04;1.87;;;1.60;;
11618;SDS011;5865;48.776;9.280;2023-04-15T18:22:31;3.77;;;3.13;;
11618;SDS011;5865;48.776;9.280;2023-04-15T18:24:59;2.10;;;1.80;;
11618;SDS011;5865;48.776;9.280;2023-04-15T18:27:28;3.40;;;2.50;;
11618;SDS011;5865;48.776;9.280;2023-04-15T18:29:56;6.20;;;4.97;;
11618;SDS011;5865;48.776;9.280;2023-04-15T18:32:23;3.37;;;2.33;;
11618;SDS011;5865;48.776;9.280;2023-04-15T18:34:52;2.57;;;1.97;;
11618;SDS011;5865;48.776;9.280;2023-04-15T18:37:22;2.50;;;2.30;;
11618;SDS011;5865;48.776;9.280;2023-04-15T18:39:49;6.30;;;5.70;;
11618;SDS011;5865;48.776;9.280;2023-04-15T18:42:18;4.97;;;4.03;;
11618;SDS011;5865;48.776;9.280;2023-04-15T18:44:45;10.57;;;7.07;;
11618;SDS011;5865;48.776;9.280;2023-04-15T18:47:12;2.97;;;2.73;;
11618;SDS011;5865;48.776;9.280;2023-04-15T18:49:40;3.47;;;2.57;;
11618;SDS011;5865;48.776;9.280;2023-04-15T18:52:08;3.43;;;3.13;;
11618;SDS011;5865;48.776;9.280;2023-04-15T18:54:37;3.40;;;3.10;;
11618;SDS011;5865;48.776;9.280;2023-04-15T18:57:04;5.67;;;4.30;;
11618;SDS011;5865;48.776;9.280;2023-04-15T18:59:32;4.90;;;3.47;;
11618;SDS011;5865;48.776;9.280;2023-04-15T19:01:59;4.43;;;3.73;;
11618;SDS011;5865;48.776;9.280;2023-04-15T19:04:27;4.83;;;3.90;;
11618;SDS011;5865;48.776;9.280;2023-04-15T19:06:54;5.30;;;4.80;;
11618;SDS011;5865;48.776;9.280;2023-04-15T19:09:22;4.70;;;3.80;;